createdAt,value
2022-08-01T00:00:47.969Z,98591.49
2022-08-01T00:04:04.398Z,98588.81
2022-08-01T00:07:20.551Z,98575.44
2022-08-01T00:10:38.367Z,98586.14
2022-08-01T00:13:54.674Z,98584.53
2022-08-01T00:17:13.449Z,98584.53
2022-08-01T00:20:29.739Z,98584.36
2022-08-01T00:23:47.202Z,98582.95
2022-08-01T00:27:03.461Z,98585.43
2022-08-01T00:30:20.279Z,98588.91
2022-08-01T00:33:36.802Z,98591.22
2022-08-01T00:36:52.851Z,98595.96
2022-08-01T00:40:09.335Z,98585.48
2022-08-01T00:43:25.760Z,98582.01
2022-08-01T00:46:42.222Z,98575.63
2022-08-01T00:49:58.403Z,98579.34
2022-08-01T00:53:18.883Z,98592.71
2022-08-01T00:56:36.486Z,98584.91
2022-08-01T00:59:53.954Z,98591.08
2022-08-01T01:03:10.787Z,98591.08
2022-08-01T01:06:44.195Z,98593.98
2022-08-01T01:10:07.761Z,98597.92
2022-08-01T01:13:30.178Z,98597.31
2022-08-01T01:16:49.669Z,98598.35
2022-08-01T01:20:09.526Z,98598.35
2022-08-01T01:23:38.589Z,98589.72
2022-08-01T01:27:03.262Z,98598.35
2022-08-01T01:30:20.811Z,98598.58
2022-08-01T01:33:45.342Z,98598.58
2022-08-01T01:37:00.958Z,98598.81
2022-08-01T01:40:20.563Z,98596.14
2022-08-01T01:43:40.499Z,98599.02
2022-08-01T01:46:59.032Z,98598.44
2022-08-01T01:50:20.172Z,98595.16
2022-08-01T01:53:40.170Z,98595.39
2022-08-01T01:57:00.285Z,98594.78
2022-08-01T02:00:19.700Z,98593.14
2022-08-01T02:03:38.232Z,98597.23
2022-08-01T02:06:58.542Z,98599.90
2022-08-01T02:10:18.643Z,98591.88
2022-08-01T02:13:38.798Z,98598.06
2022-08-01T02:16:57.701Z,98593.75
2022-08-01T02:20:16.267Z,98588.86
2022-08-01T02:23:37.665Z,98594.41
2022-08-01T02:26:59.365Z,98593.37
2022-08-01T02:30:21.016Z,98589.89
2022-08-01T02:33:43.435Z,98603.12
2022-08-01T02:37:02.354Z,98602.51
2022-08-01T02:40:23.748Z,98602.51
2022-08-01T02:43:45.356Z,98599.23
2022-08-01T02:47:09.056Z,98609.92
2022-08-01T02:50:27.684Z,98611.19
2022-08-01T02:53:46.460Z,98617.80
2022-08-01T02:57:05.254Z,98615.20
2022-08-01T03:00:25.004Z,98616.85
2022-08-01T03:03:45.583Z,98625.98
2022-08-01T03:07:03.104Z,98614.97
2022-08-01T03:10:21.901Z,98619.09
2022-08-01T03:13:40.979Z,98624.44
2022-08-01T03:16:58.877Z,98629.63
2022-08-01T03:20:19.321Z,98625.38
2022-08-01T03:23:37.844Z,98627.24
2022-08-01T03:26:56.389Z,98620.25
2022-08-01T03:30:17.380Z,98616.75
2022-08-01T03:33:33.943Z,98614.30
2022-08-01T03:36:55.248Z,98623.63
2022-08-01T03:40:16.218Z,98619.73
2022-08-01T03:43:39.516Z,98617.51
2022-08-01T03:47:01.089Z,98627.00
2022-08-01T03:50:19.976Z,98631.50
2022-08-01T03:53:41.114Z,98634.40
2022-08-01T03:56:59.977Z,98636.68
2022-08-01T04:00:20.189Z,98642.24
2022-08-01T04:03:41.934Z,98634.40
2022-08-01T04:06:55.800Z,98637.46
2022-08-01T04:10:12.885Z,98641.55
2022-08-01T04:13:29.387Z,98644.17
2022-08-01T04:16:46.737Z,98639.22
2022-08-01T04:20:04.808Z,98647.78
2022-08-01T04:23:24.741Z,98645.27
2022-08-01T04:26:42.896Z,98641.31
2022-08-01T04:30:02.139Z,98640.05
2022-08-01T04:33:21.752Z,98635.41
2022-08-01T04:36:43.645Z,98644.00
2022-08-01T04:40:02.465Z,98639.20
2022-08-01T04:43:18.977Z,98646.34
2022-08-01T04:46:36.672Z,98645.69
2022-08-01T04:49:54.349Z,98651.84
2022-08-01T04:53:10.638Z,98650.95
2022-08-01T04:56:27.043Z,98656.53
2022-08-01T04:59:48.117Z,98656.53
2022-08-01T05:03:04.390Z,98656.45
2022-08-01T05:06:20.975Z,98656.61
2022-08-01T05:09:37.683Z,98657.22
2022-08-01T05:12:53.665Z,98663.02
2022-08-01T05:16:10.300Z,98659.46
2022-08-01T05:19:26.515Z,98656.98
2022-08-01T05:22:42.832Z,98656.56
2022-08-01T05:25:58.900Z,98662.86
2022-08-01T05:29:15.624Z,98655.67
2022-08-01T05:32:33.686Z,98660.94
2022-08-01T05:35:49.725Z,98652.48
2022-08-01T05:39:05.948Z,98661.31
2022-08-01T05:42:21.980Z,98656.48
2022-08-01T05:45:38.303Z,98669.25
2022-08-01T05:48:54.492Z,98666.55
2022-08-01T05:52:11.287Z,98673.95
2022-08-01T05:55:27.562Z,98672.52
2022-08-01T05:58:43.681Z,98672.09
2022-08-01T06:02:00.161Z,98670.28
2022-08-01T06:05:17.916Z,98664.36
2022-08-01T06:08:34.110Z,98668.56
2022-08-01T06:11:50.440Z,98668.93
2022-08-01T06:15:06.626Z,98671.16
2022-08-01T06:18:24.108Z,98673.30
2022-08-01T06:21:40.229Z,98678.91
2022-08-01T06:24:56.213Z,98680.42
2022-08-01T06:28:14.043Z,98682.27
2022-08-01T06:31:33.499Z,98684.72
2022-08-01T06:34:48.533Z,98684.91
2022-08-01T06:38:04.788Z,98681.87
2022-08-01T06:41:23.490Z,98692.22
2022-08-01T06:44:40.142Z,98697.30
2022-08-01T06:47:57.544Z,98698.89
2022-08-01T06:51:18.562Z,98693.23
2022-08-01T06:54:38.681Z,98703.91
2022-08-01T06:58:00.142Z,98705.30
2022-08-01T07:01:17.092Z,98703.36
2022-08-01T07:04:34.502Z,98705.67
2022-08-01T07:07:52.270Z,98702.91
2022-08-01T07:11:08.500Z,98704.44
2022-08-01T07:14:24.558Z,98707.30
2022-08-01T07:17:42.590Z,98711.19
2022-08-01T07:20:58.933Z,98698.43
2022-08-01T07:24:19.623Z,98708.91
2022-08-01T07:27:36.535Z,98707.31
2022-08-01T07:30:54.678Z,98718.78
2022-08-01T07:34:11.204Z,98709.84
2022-08-01T07:37:42.118Z,98713.83
2022-08-01T07:40:46.271Z,98708.48
2022-08-01T07:44:05.011Z,98719.05
2022-08-01T07:47:21.480Z,98717.26
2022-08-01T07:50:37.846Z,98716.80
2022-08-01T07:53:53.956Z,98713.77
2022-08-01T07:57:11.162Z,98712.69
2022-08-01T08:00:29.619Z,98715.77
2022-08-01T08:03:45.804Z,98713.73
2022-08-01T08:07:02.059Z,98714.56
2022-08-01T08:10:19.406Z,98712.63
2022-08-01T08:13:35.593Z,98702.22
2022-08-01T08:16:52.719Z,98713.10
2022-08-01T08:20:09.611Z,98723.95
2022-08-01T08:23:41.881Z,98725.11
2022-08-01T08:27:00.182Z,98727.02
2022-08-01T08:30:18.946Z,98724.84
2022-08-01T08:33:37.072Z,98728.05
2022-08-01T08:36:53.303Z,98722.42
2022-08-01T08:40:13.753Z,98724.77
2022-08-01T08:43:30.442Z,98721.58
2022-08-01T08:46:52.888Z,98723.53
2022-08-01T08:50:11.197Z,98734.42
2022-08-01T08:53:34.787Z,98728.30
2022-08-01T08:56:49.540Z,98724.08
2022-08-01T09:00:06.137Z,98735.52
2022-08-01T09:03:23.029Z,98731.53
2022-08-01T09:06:39.629Z,98733.16
2022-08-01T09:10:00.263Z,98724.39
2022-08-01T09:13:20.348Z,98734.58
2022-08-01T09:16:36.963Z,98731.56
2022-08-01T09:19:57.703Z,98735.02
2022-08-01T09:23:14.633Z,98736.91
2022-08-01T09:26:36.872Z,98743.35
2022-08-01T09:30:01.097Z,98746.59
2022-08-01T09:33:21.507Z,98748.92
2022-08-01T09:36:34.205Z,98745.77
2022-08-01T09:39:49.312Z,98736.67
2022-08-01T09:43:20.548Z,98740.78
2022-08-01T09:46:39.030Z,98739.75
2022-08-01T09:50:02.998Z,98731.27
2022-08-01T09:53:29.734Z,98723.38
2022-08-01T09:56:47.879Z,98727.19
2022-08-01T10:00:06.834Z,98726.97
2022-08-01T10:03:33.222Z,98732.11
2022-08-01T10:06:55.598Z,98730.73
2022-08-01T10:10:22.355Z,98733.92
2022-08-01T10:13:38.344Z,98724.27
2022-08-01T10:17:01.451Z,98721.42
2022-08-01T10:20:29.782Z,98713.95
2022-08-01T10:23:41.278Z,98707.11
2022-08-01T10:27:06.075Z,98717.92
2022-08-01T10:30:23.368Z,98707.47
2022-08-01T10:33:50.824Z,98713.66
2022-08-01T10:37:02.262Z,98716.98
2022-08-01T10:40:31.029Z,98708.20
2022-08-01T10:43:40.435Z,98710.77
2022-08-01T10:47:04.632Z,98712.50
2022-08-01T10:50:29.646Z,98702.30
2022-08-01T10:53:57.039Z,98699.02
2022-08-01T10:57:15.519Z,98712.97
2022-08-01T11:00:34.970Z,98704.34
2022-08-01T11:03:59.949Z,98701.22
2022-08-01T11:07:21.004Z,98703.65
2022-08-01T11:10:44.989Z,98697.00
2022-08-01T11:14:15.722Z,98698.89
2022-08-01T11:17:48.120Z,98694.81
2022-08-01T11:21:56.743Z,98700.19
2022-08-01T11:25:01.260Z,98700.52
2022-08-01T11:28:33.091Z,98700.58
2022-08-01T11:31:46.904Z,98692.72
2022-08-01T11:35:05.550Z,98700.45
2022-08-01T11:38:37.067Z,98694.25
2022-08-01T11:41:56.358Z,98687.86
2022-08-01T11:45:18.094Z,98685.24
2022-08-01T11:48:34.087Z,98687.23
2022-08-01T11:51:51.254Z,98681.89
2022-08-01T11:55:17.178Z,98684.96
2022-08-01T11:58:35.534Z,98680.66
2022-08-01T12:01:52.053Z,98681.79
2022-08-01T12:05:14.204Z,98688.02
2022-08-01T12:08:39.201Z,98678.53
2022-08-01T12:11:56.052Z,98677.15
2022-08-01T12:15:16.456Z,98679.03
2022-08-01T12:18:32.628Z,98679.58
2022-08-01T12:21:52.157Z,98678.20
2022-08-01T12:25:16.656Z,98680.13
2022-08-01T12:28:32.840Z,98687.17
2022-08-01T12:31:50.215Z,98683.97
2022-08-01T12:35:09.833Z,98675.08
2022-08-01T12:38:30.205Z,98677.55
2022-08-01T12:41:46.609Z,98680.55
2022-08-01T12:45:03.753Z,98677.08
2022-08-01T12:48:22.324Z,98671.65
2022-08-01T12:51:36.244Z,98670.81
2022-08-01T12:55:20.770Z,98669.15
2022-08-01T12:58:41.645Z,98668.35
2022-08-01T13:01:59.530Z,98658.00
2022-08-01T13:05:17.996Z,98659.92
2022-08-01T13:08:39.534Z,98658.59
2022-08-01T13:12:03.969Z,98654.28
2022-08-01T13:15:46.349Z,98659.45
2022-08-01T13:19:05.087Z,98657.30
2022-08-01T13:22:21.337Z,98653.28
2022-08-01T13:28:40.144Z,98652.55
2022-08-01T13:31:56.764Z,98652.86
2022-08-01T13:35:16.309Z,98648.30
2022-08-01T13:38:46.423Z,98653.17
2022-08-01T13:42:04.673Z,98654.56
2022-08-01T13:45:22.346Z,98658.95
2022-08-01T13:51:56.355Z,98661.69
2022-08-01T13:55:13.877Z,98657.64
2022-08-01T13:58:30.565Z,98658.45
2022-08-01T14:01:47.078Z,98664.72
2022-08-01T14:05:03.807Z,98659.56
2022-08-01T14:08:20.177Z,98659.58
2022-08-01T14:11:37.405Z,98661.49
2022-08-01T14:14:53.883Z,98660.66
2022-08-01T14:18:10.613Z,98662.58
2022-08-01T14:21:27.082Z,98667.98
2022-08-01T14:24:43.445Z,98673.95
2022-08-01T14:28:01.259Z,98665.55
2022-08-01T14:31:17.348Z,98666.89
2022-08-01T14:34:33.510Z,98667.67
2022-08-01T14:37:49.640Z,98671.48
2022-08-01T14:41:06.039Z,98670.64
2022-08-01T14:44:22.537Z,98666.84
2022-08-01T14:47:39.402Z,98669.82
2022-08-01T14:50:55.733Z,98674.97
2022-08-01T14:54:13.008Z,98670.65
2022-08-01T14:57:34.108Z,98671.16
2022-08-01T15:00:52.424Z,98670.34
2022-08-01T15:04:09.907Z,98667.62
2022-08-01T15:07:28.455Z,98668.42
2022-08-01T15:10:45.166Z,98660.56
2022-08-01T15:14:11.331Z,98661.90
2022-08-01T15:17:30.892Z,98655.91
2022-08-01T15:20:47.505Z,98653.50
2022-08-01T15:24:03.973Z,98656.47
2022-08-01T15:27:20.405Z,98665.45
2022-08-01T15:30:37.403Z,98659.20
2022-08-01T15:33:54.335Z,98658.94
2022-08-01T15:37:16.426Z,98660.05
2022-08-01T15:40:34.757Z,98655.17
2022-08-01T15:43:55.860Z,98656.25
2022-08-01T15:47:09.647Z,98662.77
2022-08-01T15:50:25.812Z,98658.98
2022-08-01T15:53:42.174Z,98649.52
2022-08-01T15:56:59.874Z,98664.12
2022-08-01T16:00:20.073Z,98655.98
2022-08-01T16:03:36.205Z,98660.34
2022-08-01T16:06:52.722Z,98656.86
2022-08-01T16:10:09.102Z,98659.30
2022-08-01T16:13:26.455Z,98656.05
2022-08-01T16:16:44.243Z,98657.13
2022-08-01T16:20:02.297Z,98658.50
2022-08-01T16:23:18.874Z,98659.86
2022-08-01T16:26:35.339Z,98654.45
2022-08-01T16:29:51.618Z,98656.09
2022-08-01T16:33:16.135Z,98656.07
2022-08-01T16:36:26.181Z,98655.27
2022-08-01T16:39:42.468Z,98650.13
2022-08-01T16:42:58.682Z,98656.07
2022-08-01T16:46:16.365Z,98653.64
2022-08-01T16:49:33.001Z,98661.47
2022-08-01T16:52:49.999Z,98653.35
2022-08-01T16:56:07.415Z,98657.98
2022-08-01T16:59:23.876Z,98664.20
2022-08-01T17:02:40.693Z,98665.28
2022-08-01T17:05:57.694Z,98659.59
2022-08-01T17:09:15.220Z,98667.45
2022-08-01T17:12:32.998Z,98672.03
2022-08-01T17:15:49.215Z,98667.70
2022-08-01T17:19:05.797Z,98677.45
2022-08-01T17:22:25.434Z,98673.91
2022-08-01T17:25:52.619Z,98680.66
2022-08-01T17:29:20.345Z,98684.72
2022-08-01T17:32:37.041Z,98682.28
2022-08-01T17:35:56.672Z,98685.75
2022-08-01T17:39:23.492Z,98686.81
2022-08-01T17:42:38.883Z,98687.36
2022-08-01T17:45:57.999Z,98691.13
2022-08-01T17:49:14.362Z,98690.02
2022-08-01T17:52:31.372Z,98686.50
2022-08-01T17:55:55.930Z,98695.13
2022-08-01T17:59:08.137Z,98689.41
2022-08-01T18:02:25.762Z,98690.52
2022-08-01T18:05:43.418Z,98690.23
2022-08-01T18:09:02.403Z,98701.84
2022-08-01T18:12:19.183Z,98700.75
2022-08-01T18:15:35.421Z,98698.25
2022-08-01T18:18:52.930Z,98709.58
2022-08-01T18:22:28.842Z,98706.31
2022-08-01T18:25:29.796Z,98709.52
2022-08-01T18:28:47.035Z,98701.16
2022-08-01T18:32:06.131Z,98705.64
2022-08-01T18:35:24.184Z,98711.02
2022-08-01T18:38:44.234Z,98717.95
2022-08-01T18:42:01.810Z,98713.56
2022-08-01T18:45:20.046Z,98710.30
2022-08-01T18:48:36.302Z,98710.03
2022-08-01T18:51:52.415Z,98722.39
2022-08-01T18:55:09.612Z,98722.88
2022-08-01T18:58:27.266Z,98730.11
2022-08-01T19:01:44.138Z,98735.16
2022-08-01T19:05:01.269Z,98729.94
2022-08-01T19:08:18.281Z,98739.03
2022-08-01T19:11:34.628Z,98741.11
2022-08-01T19:14:50.659Z,98743.94
2022-08-01T19:18:11.410Z,98746.02
2022-08-01T19:21:28.222Z,98747.86
2022-08-01T19:24:44.646Z,98748.34
2022-08-01T19:28:02.915Z,98752.05
2022-08-01T19:31:20.775Z,98755.27
2022-08-01T19:34:42.347Z,98755.27
2022-08-01T19:37:58.952Z,98763.61
2022-08-01T19:41:16.688Z,98758.64
2022-08-01T19:44:35.068Z,98757.78
2022-08-01T19:47:57.793Z,98763.08
2022-08-01T19:51:18.371Z,98763.79
2022-08-01T19:54:39.261Z,98767.67
2022-08-01T20:01:20.790Z,98761.34
2022-08-01T20:04:38.146Z,98753.81
2022-08-01T20:07:54.777Z,98766.73
2022-08-01T20:11:15.972Z,98762.88
2022-08-01T20:14:34.068Z,98765.36
2022-08-01T20:17:50.822Z,98767.47
2022-08-01T20:21:11.461Z,98765.10
2022-08-01T20:24:29.127Z,98763.85
2022-08-01T20:27:49.545Z,98748.62
2022-08-01T20:31:09.396Z,98765.65
2022-08-01T20:34:30.539Z,98765.08
2022-08-01T20:38:04.100Z,98774.70
2022-08-01T20:41:10.092Z,98772.87
2022-08-01T20:44:30.791Z,98773.06
2022-08-01T20:47:50.486Z,98774.05
2022-08-01T20:51:21.144Z,98772.67
2022-08-01T20:54:37.996Z,98777.52
2022-08-01T20:57:58.186Z,98779.05
2022-08-01T21:01:16.573Z,98786.08
2022-08-01T21:04:53.109Z,98782.25
2022-08-01T21:08:17.087Z,98784.88
2022-08-01T21:11:41.325Z,98785.53
2022-08-01T21:15:03.757Z,98786.44
2022-08-01T21:18:23.920Z,98786.84
2022-08-01T21:21:41.472Z,98795.41
2022-08-01T21:25:03.366Z,98794.50
2022-08-01T21:28:22.061Z,98793.28
2022-08-01T21:31:41.447Z,98797.50
2022-08-01T21:34:59.502Z,98796.83
2022-08-01T21:38:15.563Z,98796.61
2022-08-01T21:41:56.270Z,98799.30
2022-08-01T21:44:53.558Z,98800.83
2022-08-01T21:48:11.694Z,98802.34
2022-08-01T21:51:37.770Z,98799.91
2022-08-01T21:55:10.767Z,98805.75
2022-08-01T21:58:37.999Z,98801.92
2022-08-01T22:02:00.790Z,98798.09
2022-08-01T22:05:20.071Z,98805.48
2022-08-01T22:08:44.947Z,98809.23
2022-08-01T22:12:02.128Z,98802.80
2022-08-01T22:15:22.172Z,98803.94
2022-08-01T22:18:39.918Z,98808.17
2022-08-01T22:21:59.501Z,98804.68
2022-08-01T22:25:18.689Z,98808.98
2022-08-01T22:28:36.257Z,98804.77
2022-08-01T22:31:57.726Z,98806.88
2022-08-01T22:35:17.445Z,98804.09
2022-08-01T22:38:34.463Z,98800.02
2022-08-01T22:42:11.310Z,98812.41
2022-08-01T22:45:20.008Z,98797.79
2022-08-01T22:48:43.755Z,98802.70
2022-08-01T22:52:08.347Z,98803.26
2022-08-01T22:55:59.377Z,98802.55
2022-08-01T22:58:49.077Z,98796.92
2022-08-01T23:02:09.519Z,98798.31
2022-08-01T23:05:32.661Z,98797.04
2022-08-01T23:08:52.213Z,98795.95
2022-08-01T23:12:10.078Z,98802.42
2022-08-01T23:15:28.046Z,98790.15
2022-08-01T23:18:49.373Z,98793.09
2022-08-01T23:22:09.345Z,98787.70
2022-08-01T23:25:26.601Z,98789.81
2022-08-01T23:28:43.926Z,98782.58
2022-08-01T23:32:06.203Z,98786.07
2022-08-01T23:35:19.660Z,98786.91
2022-08-01T23:38:36.103Z,98784.93
2022-08-01T23:41:57.583Z,98782.83
2022-08-01T23:45:15.228Z,98790.64
2022-08-01T23:48:31.231Z,98787.46
2022-08-01T23:51:47.665Z,98796.92
2022-08-01T23:55:12.382Z,98790.23
2022-08-01T23:58:22.273Z,98801.00
